Time;durP1;ratioP1;P1;durP2;ratioP2;P2;SDS_P1;SDS_P2;PMS_P1;PMS_P2;Temp;Humidity;BMP_temperature;BMP_pressure;BME280_temperature;BME280_humidity;BME280_pressure;Samples;Min_cycle;Max_cycle;Signal;HPM_P1;HPM_P2
2021/12/15 00:00:23;;;;;;;54.55;31.63;;;;;;;9.54;100.00;102882.38;10547103;28;20040;-76
2021/12/15 00:05:24;;;;;;;42.80;30.58;;;;;;;9.51;100.00;102871.00;10543724;28;20091;-76
2021/12/15 00:10:25;;;;;;;59.45;32.70;;;;;;;9.48;100.00;102864.00;10543784;28;20024;-74
2021/12/15 00:15:27;;;;;;;46.08;30.63;;;;;;;9.52;100.00;102870.81;10543840;28;20044;-76
2021/12/15 00:20:28;;;;;;;44.55;31.33;;;;;;;9.50;100.00;102872.81;10543556;28;20032;-76
2021/12/15 00:25:30;;;;;;;45.00;28.98;;;;;;;9.55;100.00;102870.53;10542142;28;20032;-76
2021/12/15 00:30:31;;;;;;;58.50;31.45;;;;;;;9.58;100.00;102864.00;10542830;28;20032;-76
2021/12/15 00:35:31;;;;;;;42.95;30.05;;;;;;;9.51;100.00;102871.00;10543321;28;20387;-76
2021/12/15 00:40:32;;;;;;;38.85;28.73;;;;;;;9.58;100.00;102865.84;10543104;28;20093;-74
2021/12/15 00:45:32;;;;;;;37.72;26.75;;;;;;;9.51;100.00;102863.72;10543475;28;20067;-76
2021/12/15 00:50:33;;;;;;;56.35;29.95;;;;;;;9.53;100.00;102868.97;10559383;28;20040;-76
2021/12/15 00:55:34;;;;;;;46.17;28.83;;;;;;;9.50;100.00;102867.41;10541728;28;20081;-75
2021/12/15 01:00:46;;;;;;;41.50;29.23;;;;;;;9.50;100.00;102862.00;10540290;28;20028;-75
2021/12/15 01:05:49;;;;;;;36.33;26.77;;;;;;;9.51;100.00;102868.28;10541521;28;20458;-76
2021/12/15 01:21:16;;;;;;;48.70;28.27;;;;;;;9.44;100.00;102872.53;10541532;28;20490;-76
2021/12/15 01:26:16;;;;;;;40.97;27.65;;;;;;;9.50;100.00;102874.66;10523043;28;20044;-75
2021/12/15 01:31:16;;;;;;;38.58;25.70;;;;;;;9.57;100.00;102870.38;10541342;28;20063;-75
2021/12/15 01:36:17;;;;;;;46.17;27.55;;;;;;;9.53;100.00;102871.69;10540795;28;20063;-76
2021/12/15 01:41:22;;;;;;;41.78;25.55;;;;;;;9.51;100.00;102871.84;10539720;28;20333;-76
2021/12/15 01:51:42;;;;;;;45.08;27.35;;;;;;;9.54;100.00;102876.97;10539546;28;20069;-75
2021/12/15 01:56:43;;;;;;;32.63;22.48;;;;;;;9.57;100.00;102899.28;10540282;28;20036;-75
2021/12/15 02:01:43;;;;;;;34.08;24.60;;;;;;;9.57;100.00;102893.88;10540054;28;20032;-75
2021/12/15 02:06:44;;;;;;;45.75;24.55;;;;;;;9.55;100.00;102900.28;10540954;28;20047;-76
2021/12/15 02:11:44;;;;;;;44.20;26.00;;;;;;;9.55;100.00;102892.19;10541153;28;20387;-75
2021/12/15 02:16:45;;;;;;;39.13;24.20;;;;;;;9.56;100.00;102898.44;10542931;28;20051;-75
2021/12/15 02:21:45;;;;;;;46.97;23.48;;;;;;;9.60;100.00;102899.00;10539596;28;20395;-75
2021/12/15 02:26:50;;;;;;;38.63;25.58;;;;;;;9.61;100.00;102904.28;10539817;28;20028;-76
2021/12/15 02:42:07;;;;;;;43.90;24.10;;;;;;;9.65;100.00;102904.84;10539431;28;20040;-76
2021/12/15 02:47:08;;;;;;;40.45;23.17;;;;;;;9.65;100.00;102896.75;10543414;28;20043;-76
2021/12/15 02:52:08;;;;;;;35.15;21.98;;;;;;;9.69;100.00;102895.44;10529311;28;20027;-76
2021/12/15 02:57:12;;;;;;;37.00;21.73;;;;;;;9.72;100.00;102898.72;10547253;28;20376;-76
2021/12/15 03:02:52;;;;;;;41.75;21.63;;;;;;;9.72;100.00;102904.13;10546501;28;20047;-75
2021/12/15 03:18:06;;;;;;;33.60;23.65;;;;;;;9.70;100.00;102891.75;10544106;28;20040;-75
2021/12/15 03:23:07;;;;;;;31.75;21.20;;;;;;;9.69;100.00;102900.88;10546397;28;20030;-76
2021/12/15 03:38:45;;;;;;;36.40;23.65;;;;;;;9.72;100.00;102912.25;10544064;28;20036;-75
2021/12/15 03:43:45;;;;;;;36.45;21.55;;;;;;;9.74;100.00;102904.00;10545832;28;20429;-76
2021/12/15 03:48:46;;;;;;;38.72;23.17;;;;;;;9.71;100.00;102910.56;10546183;28;20105;-75
2021/12/15 03:53:46;;;;;;;42.90;25.90;;;;;;;9.74;100.00;102917.53;10545355;28;20035;-76
2021/12/15 03:58:47;;;;;;;29.80;20.85;;;;;;;9.76;100.00;102918.22;10545000;28;20352;-76
2021/12/15 04:03:50;;;;;;;46.33;22.23;;;;;;;9.78;100.00;102918.94;10527300;28;20036;-75
2021/12/15 04:08:50;;;;;;;35.00;23.13;;;;;;;9.79;100.00;102920.66;10544180;28;20464;-76
2021/12/15 04:13:52;;;;;;;35.35;24.00;;;;;;;9.86;100.00;102927.22;10526601;28;20135;-75
2021/12/15 04:18:52;;;;;;;30.95;21.30;;;;;;;9.87;100.00;102928.06;10542645;28;20097;-75
2021/12/15 04:23:54;;;;;;;46.85;27.00;;;;;;;9.87;100.00;102931.63;10543635;28;20089;-75
2021/12/15 04:28:54;;;;;;;43.13;24.08;;;;;;;9.90;100.00;102939.47;10543994;28;20148;-76
2021/12/15 04:33:59;;;;;;;46.78;24.90;;;;;;;9.88;100.00;102927.91;10545477;28;20032;-76
2021/12/15 04:38:59;;;;;;;34.17;23.20;;;;;;;9.89;100.00;102935.06;10542904;28;20036;-75
2021/12/15 04:44:01;;;;;;;41.00;24.00;;;;;;;9.89;100.00;102932.34;10543764;28;20043;-76
2021/12/15 04:49:03;;;;;;;37.28;24.80;;;;;;;9.86;100.00;102927.22;10542474;28;20133;-75
2021/12/15 04:54:03;;;;;;;41.08;25.70;;;;;;;9.84;100.00;102940.03;10541142;28;20097;-75
2021/12/15 04:59:04;;;;;;;30.48;22.25;;;;;;;9.84;100.00;102931.91;10541672;28;20552;-75
2021/12/15 05:04:04;;;;;;;32.83;22.38;;;;;;;9.79;100.00;102942.28;10542057;28;20040;-76
2021/12/15 05:09:05;;;;;;;35.47;24.92;;;;;;;9.82;100.00;102939.31;10542878;28;20084;-75
2021/12/15 05:14:06;;;;;;;35.38;24.67;;;;;;;9.73;100.00;102942.88;10540658;28;20056;-75
2021/12/15 05:19:07;;;;;;;42.20;26.17;;;;;;;9.80;100.00;102937.75;10557098;28;20036;-76
2021/12/15 05:24:53;;;;;;;40.75;24.17;;;;;;;9.82;100.00;102946.56;10539022;28;20036;-76
2021/12/15 05:29:28;;;;;;;44.42;28.00;;;;;;;9.84;100.00;102945.44;10529803;28;20047;-76
2021/12/15 05:34:29;;;;;;;48.15;27.30;;;;;;;9.83;100.00;102953.69;10539458;28;20028;-76
2021/12/15 05:39:30;;;;;;;54.70;30.08;;;;;;;9.81;100.00;102950.28;10541894;28;20036;-79
2021/12/15 05:44:30;;;;;;;46.15;29.90;;;;;;;9.82;100.00;102949.28;10541641;28;20099;-79
2021/12/15 05:49:31;;;;;;;41.45;18.30;;;;;;;9.76;100.00;102945.28;10540510;28;20028;-78
2021/12/15 05:54:31;;;;;;;49.72;28.77;;;;;;;9.81;100.00;102956.53;10541012;28;20036;-78
2021/12/15 05:59:32;;;;;;;55.30;28.08;;;;;;;9.82;100.00;102958.25;10540505;28;20040;-76
2021/12/15 06:04:32;;;;;;;41.80;25.67;;;;;;;9.87;100.00;102955.97;10539200;28;20044;-77
2021/12/15 06:09:33;;;;;;;43.05;22.48;;;;;;;9.85;100.00;102960.66;10539621;28;20031;-74
2021/12/15 06:14:34;;;;;;;43.95;20.77;;;;;;;9.84;100.00;102956.25;10538523;28;20036;-73
2021/12/15 06:19:34;;;;;;;49.22;26.67;;;;;;;9.87;100.00;102965.97;10541234;28;20463;-74
2021/12/15 06:24:36;;;;;;;55.17;27.70;;;;;;;9.81;100.00;102967.38;10546903;28;20111;-73
2021/12/15 06:29:36;;;;;;;34.08;24.27;;;;;;;9.76;100.00;102969.63;10546982;28;20036;-73
2021/12/15 06:34:37;;;;;;;53.13;26.90;;;;;;;9.74;100.00;102974.34;10545803;28;20028;-73
2021/12/15 06:39:37;;;;;;;50.38;26.90;;;;;;;9.81;100.00;102986.31;10547477;28;20040;-73
2021/12/15 06:44:40;;;;;;;42.50;26.27;;;;;;;9.86;100.00;102981.34;10563380;28;20390;-73
2021/12/15 07:00:18;;;;;;;40.28;27.25;;;;;;;9.86;100.00;102986.75;10545802;28;20040;-73
2021/12/15 07:05:19;;;;;;;43.15;24.45;;;;;;;9.90;100.00;103006.28;10528412;28;20036;-75
2021/12/15 07:10:23;;;;;;;36.05;23.80;;;;;;;9.88;100.00;103006.41;10527463;28;20097;-74
2021/12/15 07:15:24;;;;;;;60.60;28.70;;;;;;;9.89;100.00;103005.41;10546129;28;20383;-73
2021/12/15 07:20:37;;;;;;;48.15;25.00;;;;;;;9.90;100.00;103009.81;10545266;28;20040;-73
2021/12/15 07:25:38;;;;;;;39.78;25.95;;;;;;;9.92;100.00;103010.56;10545730;28;20413;-74
2021/12/15 07:30:38;;;;;;;50.95;25.23;;;;;;;9.88;100.00;103014.50;10543529;28;20027;-74
2021/12/15 07:35:39;;;;;;;45.00;27.10;;;;;;;9.87;100.00;103009.25;10543373;28;20047;-73
2021/12/15 07:40:40;;;;;;;50.25;26.58;;;;;;;9.86;100.00;103019.22;10543520;28;20036;-74
2021/12/15 07:45:52;;;;;;;40.53;26.20;;;;;;;9.89;100.00;103018.06;10542528;28;20047;-73
2021/12/15 07:50:55;;;;;;;40.40;25.88;;;;;;;9.88;100.00;103013.66;10545959;28;20036;-73
2021/12/15 07:55:56;;;;;;;37.28;24.00;;;;;;;9.90;100.00;103015.22;10544109;28;20391;-74
2021/12/15 08:00:59;;;;;;;36.47;23.05;;;;;;;9.87;100.00;103015.50;10543016;28;20047;-73
2021/12/15 08:06:00;;;;;;;36.65;23.80;;;;;;;9.84;100.00;103018.50;10543516;28;20107;-73
2021/12/15 08:11:00;;;;;;;35.60;21.55;;;;;;;9.86;100.00;103015.63;10543222;28;20039;-73
2021/12/15 08:16:01;;;;;;;41.67;21.30;;;;;;;9.88;100.00;103022.63;10545696;28;20475;-74
2021/12/15 08:21:04;;;;;;;44.78;23.42;;;;;;;9.95;100.00;103026.47;10544556;28;20111;-74
2021/12/15 08:26:04;;;;;;;39.28;20.42;;;;;;;9.99;100.00;103030.63;10541672;28;20086;-74
2021/12/15 08:31:05;;;;;;;36.95;19.05;;;;;;;9.97;100.00;103038.03;10542480;28;20421;-73
2021/12/15 08:36:10;;;;;;;33.22;19.63;;;;;;;9.99;100.00;103037.91;10540736;28;20032;-73
2021/12/15 08:41:22;;;;;;;37.63;20.83;;;;;;;10.01;100.00;103044.84;10541735;28;20036;-73
2021/12/15 08:46:31;;;;;;;28.25;20.42;;;;;;;10.06;100.00;103047.16;10542285;28;20116;-72
2021/12/15 08:51:31;;;;;;;40.58;18.67;;;;;;;10.03;100.00;103047.44;10540986;28;20039;-74
2021/12/15 08:56:32;;;;;;;24.23;17.13;;;;;;;10.06;100.00;103054.44;10542294;28;20036;-74
2021/12/15 09:01:32;;;;;;;42.47;16.73;;;;;;;10.11;100.00;103054.84;10542595;28;20027;-72
2021/12/15 09:06:33;;;;;;;28.08;15.85;;;;;;;10.16;100.00;103064.25;10542735;28;20035;-73
2021/12/15 09:11:33;;;;;;;35.35;17.63;;;;;;;10.19;100.00;103074.81;10541361;28;20056;-73
2021/12/15 09:16:34;;;;;;;26.15;16.77;;;;;;;10.18;100.00;103073.09;10542601;28;20101;-73
2021/12/15 09:21:35;;;;;;;28.52;15.45;;;;;;;10.22;100.00;103068.25;10541235;28;20044;-74
2021/12/15 09:26:36;;;;;;;22.35;15.05;;;;;;;10.26;100.00;103075.13;10540880;28;20032;-73
2021/12/15 09:31:36;;;;;;;30.38;16.77;;;;;;;10.31;100.00;103077.41;10538997;28;20040;-73
2021/12/15 09:36:37;;;;;;;25.92;17.10;;;;;;;10.29;100.00;103092.94;10540488;28;20118;-73
2021/12/15 09:41:38;;;;;;;35.38;16.70;;;;;;;10.27;100.00;103098.47;10540182;28;20039;-73
2021/12/15 10:02:34;;;;;;;25.10;16.38;;;;;;;10.45;100.00;103123.88;10554647;28;20043;-74
2021/12/15 10:18:09;;;;;;;24.00;13.52;;;;;;;10.60;100.00;103123.47;10552606;28;20044;-74
2021/12/15 10:23:12;;;;;;;17.73;11.55;;;;;;;10.69;100.00;103119.91;10552953;28;20127;-73
2021/12/15 10:28:14;;;;;;;21.13;12.05;;;;;;;10.69;100.00;103119.91;10553387;28;20546;-74
2021/12/15 10:33:21;;;;;;;22.15;12.88;;;;;;;10.68;100.00;103126.28;10553194;28;20051;-73
2021/12/15 10:38:29;;;;;;;32.30;10.35;;;;;;;10.75;100.00;103126.56;10553595;28;20036;-73
2021/12/15 10:43:42;;;;;;;23.60;8.73;;;;;;;10.80;100.00;103124.28;10553099;28;20044;-73
2021/12/15 10:48:54;;;;;;;16.30;8.38;;;;;;;10.87;100.00;103128.97;10554517;28;20027;-73
2021/12/15 10:53:56;;;;;;;15.52;8.07;;;;;;;10.86;100.00;103127.28;10553334;28;20455;-73
2021/12/15 10:59:00;;;;;;;10.55;8.18;;;;;;;10.89;100.00;103124.28;10551082;28;20035;-73
2021/12/15 11:04:01;;;;;;;13.60;6.30;;;;;;;10.88;100.00;103122.59;10551657;28;20028;-74
2021/12/15 11:09:36;;;;;;;13.98;7.35;;;;;;;10.90;100.00;103128.69;10547685;28;20499;-74
2021/12/15 11:14:39;;;;;;;7.88;6.97;;;;;;;10.93;100.00;103127.56;10539919;28;20119;-73
2021/12/15 11:19:48;;;;;;;10.82;6.00;;;;;;;10.88;100.00;103119.00;10545094;28;20028;-73
2021/12/15 11:24:48;;;;;;;23.95;8.02;;;;;;;10.94;100.00;103126.53;10546533;28;20103;-74
2021/12/15 11:29:48;;;;;;;8.55;7.07;;;;;;;10.97;100.00;103128.09;10545262;28;20527;-73
2021/12/15 11:35:00;;;;;;;16.60;7.93;;;;;;;10.96;100.00;103118.28;10545806;28;20039;-74
2021/12/15 11:40:03;;;;;;;8.68;6.00;;;;;;;10.94;100.00;103126.53;10546461;28;20043;-74
2021/12/15 11:45:08;;;;;;;12.40;6.22;;;;;;;10.92;100.00;103118.56;10544851;28;20434;-73
2021/12/15 11:50:19;;;;;;;11.10;6.07;;;;;;;10.97;100.00;103128.09;10544806;28;20055;-73
2021/12/15 11:55:28;;;;;;;7.55;6.80;;;;;;;10.97;100.00;103123.53;10543535;28;20031;-74
2021/12/15 12:00:29;;;;;;;9.77;8.35;;;;;;;11.02;100.00;103113.13;10525871;28;20541;-73
2021/12/15 12:05:31;;;;;;;18.17;10.90;;;;;;;11.07;100.00;103118.97;10543971;28;20032;-74
2021/12/15 12:10:45;;;;;;;18.83;8.32;;;;;;;11.09;100.00;103118.81;10543949;28;20036;-74
2021/12/15 12:15:47;;;;;;;20.48;9.57;;;;;;;11.12;100.00;103119.38;10543810;28;20552;-74
2021/12/15 12:20:50;;;;;;;15.02;11.35;;;;;;;11.09;100.00;103108.81;10541601;28;20459;-74
2021/12/15 12:25:53;;;;;;;19.52;9.98;;;;;;;10.98;100.00;103106.28;10544059;28;20085;-74
2021/12/15 12:30:58;;;;;;;19.50;7.93;;;;;;;10.99;100.00;103104.44;10543091;28;20036;-74
2021/12/15 12:36:06;;;;;;;14.90;9.15;;;;;;;10.96;100.00;103102.00;10542886;28;20081;-75
2021/12/15 12:41:10;;;;;;;16.25;7.38;;;;;;;10.94;100.00;103096.72;10541230;28;20395;-74
2021/12/15 12:46:19;;;;;;;27.50;7.90;;;;;;;10.98;100.00;103091.88;10542899;28;20119;-74
2021/12/15 13:02:05;;;;;;;14.60;8.27;;;;;;;11.06;100.00;103100.97;10541578;28;20043;-73
2021/12/15 13:07:05;;;;;;;10.70;8.27;;;;;;;11.04;100.00;103093.97;10541843;28;20521;-72
2021/12/15 13:12:26;;;;;;;13.95;8.68;;;;;;;11.04;100.00;103091.28;10542112;28;20036;-74
2021/12/15 13:17:29;;;;;;;13.25;8.52;;;;;;;10.97;100.00;103071.19;10540369;28;20048;-74
2021/12/15 13:22:48;;;;;;;19.42;8.75;;;;;;;10.97;100.00;103091.00;10523899;28;20040;-74
2021/12/15 13:33:35;;;;;;;17.80;7.70;;;;;;;10.96;100.00;103078.47;10541548;28;20395;-74
2021/12/15 13:38:48;;;;;;;17.45;8.15;;;;;;;11.03;100.00;103093.13;10540313;28;20039;-74
2021/12/15 13:43:50;;;;;;;26.98;9.00;;;;;;;11.02;100.00;103088.72;10538931;28;20042;-74
2021/12/15 13:48:57;;;;;;;25.20;9.00;;;;;;;11.04;100.00;103083.13;10539833;28;20024;-74
2021/12/15 13:53:57;;;;;;;19.42;8.40;;;;;;;11.07;100.00;103090.97;10541476;28;20024;-73
2021/12/15 13:58:57;;;;;;;16.70;8.18;;;;;;;11.01;100.00;103078.00;10538460;28;20064;-74
2021/12/15 14:03:58;;;;;;;16.95;8.48;;;;;;;10.92;100.00;103077.91;10538142;28;20044;-74
2021/12/15 14:09:04;;;;;;;19.58;7.55;;;;;;;10.94;100.00;103083.16;10539716;28;20491;-74
2021/12/15 14:14:20;;;;;;;15.03;7.10;;;;;;;10.92;100.00;103083.31;10538373;28;20052;-74
2021/12/15 14:19:36;;;;;;;15.65;6.95;;;;;;;10.86;100.00;103089.34;10537582;28;20467;-74
2021/12/15 14:24:36;;;;;;;13.90;7.40;;;;;;;10.82;100.00;103104.19;10538157;28;20032;-73
2021/12/15 14:29:37;;;;;;;14.75;7.28;;;;;;;10.79;100.00;103109.91;10538888;28;20028;-74
2021/12/15 14:34:38;;;;;;;13.80;7.95;;;;;;;10.77;100.00;103113.75;10539738;28;20088;-73
2021/12/15 14:39:40;;;;;;;19.65;7.57;;;;;;;10.66;100.00;103117.47;10538388;28;20028;-74
2021/12/15 14:44:45;;;;;;;14.15;7.80;;;;;;;10.60;100.00;103118.03;10544300;28;20111;-74
2021/12/15 14:49:53;;;;;;;15.18;8.65;;;;;;;10.58;100.00;103128.16;10547180;28;20039;-74
2021/12/15 14:54:55;;;;;;;9.68;5.88;;;;;;;10.52;100.00;103135.00;10544742;28;20360;-74
2021/12/15 14:59:59;;;;;;;28.20;10.45;;;;;;;10.48;100.00;103139.84;10527631;28;20059;-74
2021/12/15 15:05:06;;;;;;;16.25;9.02;;;;;;;10.49;100.00;103140.69;10545993;28;20126;-74
2021/12/15 15:10:16;;;;;;;12.07;7.97;;;;;;;10.46;100.00;103154.53;10546523;28;20020;-73
2021/12/15 15:15:25;;;;;;;9.95;8.35;;;;;;;10.46;100.00;103160.81;10547556;28;20135;-74
2021/12/15 15:20:29;;;;;;;21.25;9.20;;;;;;;10.45;100.00;103155.53;10545082;28;20024;-72
2021/12/15 15:25:32;;;;;;;16.30;6.88;;;;;;;10.40;100.00;103168.63;10544084;28;20099;-74
2021/12/15 15:30:33;;;;;;;13.57;7.78;;;;;;;10.42;100.00;103172.06;10543476;28;20020;-74
2021/12/15 15:35:36;;;;;;;18.63;7.63;;;;;;;10.40;100.00;103179.47;10544758;28;20040;-74
2021/12/15 15:40:41;;;;;;;16.10;8.20;;;;;;;10.35;100.00;103174.47;10546470;28;20032;-74
2021/12/15 15:45:42;;;;;;;16.25;9.07;;;;;;;10.37;100.00;103179.75;10549031;28;20036;-73
2021/12/15 15:50:45;;;;;;;16.63;6.60;;;;;;;10.38;100.00;103186.91;10529404;28;20039;-74
2021/12/15 15:55:48;;;;;;;20.23;9.25;;;;;;;10.36;100.00;103172.63;10526539;28;20467;-74
2021/12/15 16:00:54;;;;;;;15.80;7.80;;;;;;;10.33;100.00;103192.72;10545266;28;20080;-74
2021/12/15 16:05:56;;;;;;;14.90;7.75;;;;;;;10.33;100.00;103199.97;10545014;28;20438;-74
2021/12/15 16:10:56;;;;;;;20.25;7.85;;;;;;;10.32;100.00;103199.13;10568836;28;20032;-74
2021/12/15 16:16:13;;;;;;;18.58;7.97;;;;;;;10.31;100.00;103196.59;10526650;28;20558;-75
2021/12/15 16:26:32;;;;;;;17.63;8.20;;;;;;;10.32;100.00;103201.00;10543211;28;20193;-74
2021/12/15 16:31:38;;;;;;;11.50;6.93;;;;;;;10.32;100.00;103204.56;10543995;28;20035;-74
2021/12/15 16:36:38;;;;;;;17.70;6.22;;;;;;;10.32;100.00;103209.13;10544079;28;20035;-74
2021/12/15 16:41:44;;;;;;;16.83;8.90;;;;;;;10.35;100.00;103212.41;10541513;28;20389;-73
2021/12/15 16:47:05;;;;;;;13.73;8.10;;;;;;;10.31;100.00;103208.25;10526552;28;20027;-74
2021/12/15 16:52:20;;;;;;;9.18;7.28;;;;;;;10.31;100.00;103221.81;10544464;28;20035;-74
2021/12/15 16:57:23;;;;;;;15.10;9.75;;;;;;;10.31;100.00;103223.66;10541750;28;20059;-73
2021/12/15 17:02:36;;;;;;;18.58;8.48;;;;;;;10.29;100.00;103226.50;10508253;28;20067;-74
2021/12/15 17:07:39;;;;;;;11.82;7.32;;;;;;;10.34;100.00;103234.19;10540109;28;20024;-74
2021/12/15 17:12:42;;;;;;;27.60;8.68;;;;;;;10.36;100.00;103237.63;10541545;28;20447;-74
2021/12/15 17:17:44;;;;;;;14.52;8.82;;;;;;;10.37;100.00;103240.22;10541989;28;20135;-74
2021/12/15 17:22:47;;;;;;;17.98;7.60;;;;;;;10.33;100.00;103230.63;10541208;28;20110;-74
2021/12/15 17:28:04;;;;;;;11.75;8.43;;;;;;;10.34;100.00;103239.59;10522711;28;20451;-73
2021/12/15 17:33:04;;;;;;;10.48;6.55;;;;;;;10.34;100.00;103255.84;10540571;28;20028;-74
2021/12/15 17:38:22;;;;;;;16.42;8.18;;;;;;;10.36;100.00;103253.88;10522514;28;20032;-74
2021/12/15 17:43:36;;;;;;;12.93;6.82;;;;;;;10.33;100.00;103257.72;10523079;28;20038;-74
2021/12/15 17:48:36;;;;;;;13.35;7.07;;;;;;;10.31;100.00;103267.00;10540802;28;20032;-73
2021/12/15 17:53:37;;;;;;;28.70;9.88;;;;;;;10.29;100.00;103264.41;10541650;28;20036;-74
2021/12/15 17:58:37;;;;;;;16.02;8.05;;;;;;;10.28;100.00;103264.56;10540656;28;20028;-74
2021/12/15 18:03:39;;;;;;;10.25;7.93;;;;;;;10.25;100.00;103273.78;10540965;28;20086;-73
2021/12/15 18:08:40;;;;;;;16.05;9.00;;;;;;;10.25;100.00;103279.19;10540135;28;20032;-74
2021/12/15 18:13:42;;;;;;;16.08;8.88;;;;;;;10.21;100.00;103278.63;10539427;28;20135;-73
2021/12/15 18:18:43;;;;;;;14.85;8.98;;;;;;;10.19;100.00;103282.44;10545711;28;20036;-74
2021/12/15 18:23:43;;;;;;;15.15;10.77;;;;;;;10.22;100.00;103288.44;10546598;28;20104;-74
2021/12/15 18:28:47;;;;;;;17.08;10.32;;;;;;;10.19;100.00;103280.59;10531742;28;20043;-74
2021/12/15 18:33:48;;;;;;;27.45;9.07;;;;;;;10.16;100.00;103298.97;10547373;28;20028;-74
2021/12/15 18:38:48;;;;;;;21.42;10.10;;;;;;;10.16;100.00;103277.31;10529618;28;20036;-74
2021/12/15 18:43:49;;;;;;;32.78;10.48;;;;;;;10.15;100.00;103278.31;10547294;28;20028;-74
2021/12/15 18:48:52;;;;;;;15.23;10.07;;;;;;;10.16;100.00;103282.72;10545865;28;20062;-74
2021/12/15 18:53:52;;;;;;;25.98;12.55;;;;;;;10.11;100.00;103283.09;10547323;28;20031;-74
2021/12/15 18:58:53;;;;;;;22.67;10.75;;;;;;;10.13;100.00;103305.50;10546882;28;20127;-74
2021/12/15 19:03:53;;;;;;;28.70;12.35;;;;;;;10.14;100.00;103306.34;10547697;28;20440;-73
2021/12/15 19:08:54;;;;;;;24.55;13.27;;;;;;;10.14;100.00;103307.19;10546123;28;20380;-74
2021/12/15 19:13:55;;;;;;;25.58;15.15;;;;;;;10.09;100.00;103306.78;10546055;28;20372;-74
2021/12/15 19:18:56;;;;;;;25.90;14.05;;;;;;;10.10;100.00;103311.19;10545879;28;20375;-74
2021/12/15 19:23:56;;;;;;;24.73;13.38;;;;;;;10.07;100.00;103316.00;10546351;28;20115;-74
2021/12/15 19:28:57;;;;;;;25.55;13.60;;;;;;;9.95;100.00;103317.94;10542572;28;20169;-73
2021/12/15 19:33:58;;;;;;;34.67;15.25;;;;;;;9.85;100.00;103315.19;10545334;28;20081;-74
2021/12/15 19:38:59;;;;;;;16.75;13.63;;;;;;;9.76;100.00;103316.84;10544903;28;20074;-75
2021/12/15 19:44:01;;;;;;;32.75;12.80;;;;;;;9.73;100.00;103316.25;10544243;28;20379;-74
2021/12/15 19:49:02;;;;;;;31.60;14.23;;;;;;;9.64;100.00;103327.88;10526970;28;20539;-76
2021/12/15 19:54:03;;;;;;;32.70;13.95;;;;;;;9.61;100.00;103328.16;10542886;28;20032;-74
2021/12/15 19:59:04;;;;;;;23.17;14.75;;;;;;;9.53;100.00;103307.16;10543164;28;20036;-74
2021/12/15 20:04:05;;;;;;;25.70;14.27;;;;;;;9.39;100.00;103331.81;10510099;28;20136;-74
2021/12/15 20:09:06;;;;;;;19.27;11.32;;;;;;;9.46;100.00;103338.41;10549815;28;20035;-74
2021/12/15 20:14:09;;;;;;;21.75;13.18;;;;;;;9.45;100.00;103334.84;10571906;28;20056;-75
2021/12/15 20:19:09;;;;;;;21.40;11.63;;;;;;;9.31;100.00;103344.13;10509700;28;20035;-74
2021/12/15 20:24:13;;;;;;;18.00;11.10;;;;;;;9.21;100.00;103342.34;10542038;28;20115;-73
2021/12/15 20:29:14;;;;;;;24.33;12.90;;;;;;;9.13;100.00;103342.13;10525054;28;20464;-73
2021/12/15 20:34:14;;;;;;;31.08;13.50;;;;;;;9.06;100.00;103342.63;10543007;28;20040;-75
2021/12/15 20:39:16;;;;;;;19.02;13.98;;;;;;;9.01;100.00;103347.56;10542376;28;20041;-75
2021/12/15 20:44:16;;;;;;;30.83;13.82;;;;;;;8.96;100.00;103354.31;10542888;28;20035;-75
2021/12/15 20:49:17;;;;;;;23.88;12.98;;;;;;;8.85;100.00;103358.78;10543509;28;20071;-74
2021/12/15 20:54:17;;;;;;;15.30;10.38;;;;;;;8.80;100.00;103360.13;10543316;28;20114;-74
2021/12/15 20:59:18;;;;;;;27.00;12.85;;;;;;;8.76;100.00;103361.38;10541425;28;20032;-75
2021/12/15 21:04:18;;;;;;;24.00;10.98;;;;;;;8.75;100.00;103367.75;10523549;28;20532;-74
2021/12/15 21:09:24;;;;;;;36.80;12.75;;;;;;;8.61;100.00;103367.06;10541084;28;20046;-75
2021/12/15 21:14:28;;;;;;;17.83;10.20;;;;;;;8.60;100.00;103364.44;10539517;28;20128;-75
2021/12/15 21:19:29;;;;;;;25.80;11.35;;;;;;;8.56;100.00;103363.84;10541209;28;20059;-75
2021/12/15 21:24:29;;;;;;;32.22;11.57;;;;;;;8.50;100.00;103361.63;10541540;28;20114;-73
2021/12/15 21:29:33;;;;;;;33.28;12.93;;;;;;;8.42;100.00;103369.47;10541321;28;20028;-73
2021/12/15 21:34:33;;;;;;;10.38;9.27;;;;;;;8.38;100.00;103370.72;10541071;28;20028;-75
2021/12/15 21:39:33;;;;;;;13.20;9.73;;;;;;;8.35;100.00;103370.94;10541980;28;20032;-74
2021/12/15 21:44:34;;;;;;;25.67;11.75;;;;;;;8.34;100.00;103380.88;10539670;28;20128;-73
2021/12/15 21:49:36;;;;;;;21.45;9.57;;;;;;;8.26;100.00;103377.91;10540469;28;20078;-75
2021/12/15 21:54:36;;;;;;;15.30;9.75;;;;;;;8.20;100.00;103372.13;10537543;28;20051;-73
2021/12/15 21:59:37;;;;;;;21.08;8.70;;;;;;;8.19;100.00;103386.63;10540790;28;20028;-74
2021/12/15 22:04:37;;;;;;;14.52;8.13;;;;;;;8.27;100.00;103392.28;10522753;28;20024;-74
2021/12/15 22:09:38;;;;;;;13.55;9.35;;;;;;;8.39;100.00;103385.94;10540007;28;20468;-74
2021/12/15 22:14:38;;;;;;;22.20;10.25;;;;;;;8.41;100.00;103388.53;10539311;28;20056;-74
2021/12/15 22:19:40;;;;;;;24.65;9.05;;;;;;;8.38;100.00;103381.53;10540007;28;20048;-74
2021/12/15 22:24:40;;;;;;;25.73;8.75;;;;;;;8.36;100.00;103383.47;10543435;28;20150;-74
2021/12/15 22:29:44;;;;;;;14.02;9.55;;;;;;;8.35;100.00;103384.44;10542331;28;20024;-74
2021/12/15 22:34:45;;;;;;;19.20;9.38;;;;;;;8.30;100.00;103389.34;10539539;28;20059;-75
2021/12/15 22:39:45;;;;;;;13.82;7.93;;;;;;;8.30;100.00;103397.44;10505476;28;20047;-73
2021/12/15 22:44:46;;;;;;;16.02;9.25;;;;;;;8.31;100.00;103397.31;10539271;28;20056;-73
2021/12/15 22:49:46;;;;;;;18.48;9.45;;;;;;;8.32;100.00;103403.56;10539481;28;20028;-74
2021/12/15 22:54:47;;;;;;;17.88;9.88;;;;;;;8.29;100.00;103401.09;10540556;28;20519;-74
2021/12/15 22:59:47;;;;;;;16.30;8.57;;;;;;;8.26;100.00;103404.06;10543146;28;20123;-75
2021/12/15 23:04:51;;;;;;;20.27;11.05;;;;;;;8.25;100.00;103405.91;10544086;28;20542;-75
2021/12/15 23:09:52;;;;;;;13.48;9.68;;;;;;;8.18;100.00;103403.81;10546698;28;20028;-75
2021/12/15 23:14:56;;;;;;;15.77;8.95;;;;;;;8.11;100.00;103409.69;10546884;28;20075;-73
2021/12/15 23:19:57;;;;;;;26.55;11.43;;;;;;;8.02;100.00;103417.63;10547600;28;20387;-74
2021/12/15 23:24:57;;;;;;;21.10;9.45;;;;;;;7.97;100.00;103420.69;10546247;28;20040;-75
2021/12/15 23:29:58;;;;;;;20.95;8.90;;;;;;;7.99;100.00;103420.56;10545785;28;20032;-74
